Terminal Aerodrome Forecast
Issued by NWS

Home | Current Version | Previous Version | Text Only | Print | Product List | Glossary On
Versions: 1 2 3 4 5 6 7 8 9 10 11 12 13 14 15 16 17 18 19 20 21 22 23 24 25 26 27 28 29
000
FTUS44 KFWD 181500 AAA
TAFFTW
TAF AMD
KFTW 181500Z 1815/1912 04004KT P6SM SCT040 BKN070
      TEMPO 1815/1817 BKN040
     FM181700 06006KT P6SM SCT060
     FM190300 11005KT P6SM SKC=

USA.gov is the U.S. government's official web portal to all federal, state and local government web resources and services.